الصفحة الرئيسية
METAR-TAF:

METAR-TAF

مطار :

Wanaham

Lifou, نيو كاليدونيا

دائرة عرض: 20-46S, خط طول: 167-14E, ارتفاع: 28 متر

METAR: مفقودة

زمن: 00:42 (13:42 UTC)

توقعات

تاريخ ووقت الإصدار 2ساعات و 42 دقيقة قبل الساعة 11:00UTC
التوقعات صالحة من06 الساعة 12 UTC إلى 07 الساعة 12 UTC
ريح 15 عقدة من الغرب/الجنوب الغربي تتزايد حتى 30 عقدة
الرؤية 10 كم أو أكثر
غيوم متفرقة على ارتفاع 2500 قدم
غيوم متفرقة على ارتفاع 4500 قدم
أصبح
من 06 الساعة 16 UTC إلى 06 الساعة 18 UTC
ريح 8 عقدة من الغرب/الجنوب الغربي
أصبح
من 06 الساعة 21 UTC إلى 06 الساعة 24 UTC
ريح 2 عقدةمن اتجاهات متغيرة
نظرية الاحتمالات 30% :
مؤقت
من 07 الساعة 02 UTC إلى 07 الساعة 06 UTC
زخات من المطر

TAF: NWWL 061100Z 0612/0712 25015G30KT 9999 SCT025 SCT045 BECMG 0616/0618 24008KT BECMG 0621/0624 VRB02KT PROB30 TEMPO 0702/0706 SHRA

أرصاد الطقس والتوقعات من أكثر من 4000 مطار (تقارير الطقس للمطار METAR والتنبؤ بالطقس بالمطارTAF).

المحطات المتاحة هي النقط الصفراء والحمراء على الخريطة.

حرك المؤشر فوق النقطة لمعرفة اسم المحطة.

ثم انقر لمعرفة أرصاد وتوقعات الطقس.

لتغيير الخارطة: اضغط على الأزرار الخضراء مع رمز الصليب الأسود للتكبير. على الزر الأخضر مع شرطة للتصغير، أو على الأسهم الخضراء للخرائط المجاورة.


METAR-TAF: